« 岐阜基地航空祭2019【展示編】 岐阜飛行場 2019/11/10 sun | トップページ | ### RJNT log 201911 ### »

2019/11/25

空不足 成田国際空港 2019/11/23 sat

しばらく空を見ることにご無沙汰で、こんな雨模様の中、ずぶ濡れになりながら写真撮ってる、だらです。

RJAA 230430Z 05010KT 010V080 3000 -SHRA BR FEW003 BKN004 BKN006 16/15 Q1025 NOSIG RMK 1ST003 5ST004 7ST006 A3028

20191123_rjaa_00lxrcv

小松じゃ、ないぞ

20191123_rjaa_01lxrcv

ICV5375 RJAA-VHHH LX-RCV B747-4R7F

20191123_rjaa_02rpc3341

タワーは微かに見えるだけ。

20191123_rjaa_03rpc3341

CEB5055 RJAA-RPLL RP-C3341 A330-343

20191123_rjaa_04hl7732

AAR101 RJAA-RKSI HL7732 B777-28EER

20191123_rjaa_05ja816p

APJ587 RJAA-RJCC JA816P A320-214

20191123_rjaa_06rpc9937

PAL427 RJAA-RPLL RP-C9937 A321-271NX

20191123_rjaa_07vqbce

AFL263 RJAA-UUEE VQ-BCE B777-3M0ER

20191123_rjaa_08b309x

CSN8128 RJAA-ZGSZ B-309X A320-251N

20191123_rjaa_09ja02jj

JJP405 RJAA-RJOM JA02JJ A320-232

20191123_rjaa_10b2288

CSN628 RJAA-ZYTX B-2288 A321-231

20191123_rjaa_11ja15jj

JJP635 RJAA-RJFM JA15JJ A320-232

20191123_rjaa_12b17803

EVA183 RJAA-RCTP B-17803 B787-10

RJAA 230500Z 05009KT 010V080 3200 -SHRA BR FEW002 SCT004 BKN005 15/15 Q1025 TEMPO 3000 -SHRA BR RMK 1ST002 4ST004 7ST005 A3028

20191123_rjaa_13ja813p

APJ545 RJAA-RJKA JA813P A320-214

20191123_rjaa_14eiddh

20191123_rjaa_15eiddh

AZA785 RJAA-LIRF EI-DDH B777-243ER

20191123_rjaa_16ja651j

JAL785 PHNL-RJAA JA651J B768-346ER

20191123_rjaa_17hl7530

KAL704 RJAA-RKSI HL7530 B777-2B5ER

20191123_rjaa_18n782ua

UAL903 PHNL-RJAA N782UA B777-222ER

20191123_rjaa_19ja603a

ANA8518 ZSPD-RJAA JA603A B767-381ERBCF

20191123_rjaa_20hsxbc

NCT101 RJAA-VTBD HS-XBC B777-212ER

20191123_rjaa_21ja06jj

JJP623 RJAA-RJFK JA06JJ A320-232

20191123_rjaa_22ppadz

PP-ADZ KBFI-RJAA PP-ADZ G650

20191123_rjaa_23ja732a

ANA802 WSSS-RJAA JA732A B777-381ER

20191123_rjaa_24ja05jj

JJP777 RJAA-RJSY JA05JJ A320-232

20191123_rjaa_25ja733j

20191123_rjaa_26ja733j

JAL9 KORD-RJAA JA733J B777-346ER

20191123_rjaa_27ja813a

ANA959 RJAA-ZSPD JA813A B787-8

RJAA 230530Z 05009KT 010V080 3000 -SHRA BR FEW002 BKN004 16/15 Q1025 NOSIG RMK 1ST002 7ST004 A3028

20191123_rjaa_28ja901a

ANA820 RPLL-RJAA JA901A B787-10

20191123_rjaa_29hl8261

JJA1105 RJAA-RKSI HL8261 B737-8BK

20191123_rjaa_30n510dn

DAL295 KATL-RJAA N510DN A350-941

20191123_rjaa_31n2737u

UAL79 KEWR-RJAA N2737U B777-322ER

20191123_rjaa_32ja310j

JAL877 RJAA-ZSPD JA310J B737-846

20191123_rjaa_33ja805a

ANA171 KSJC-RJAA JA805A B787-8

20191123_rjaa_34ja779a

ANA173 KIAH-RJAA JA779A B777-381ER

20191123_rjaa_35b3325

B-3325 RJAA-ROAH B-3325 G650

20191123_rjaa_36n74007

UAL7 KIAH-RJAA N74007 B777-224ER

20191123_rjaa_37b1001

DKH1380 RJAA-ZSPD B-1001 A321-231

20191123_rjaa_38ja735a

20191123_rjaa_39ja735a

ANA11 KORD-RJAA JA735A B777-381ER

20191123_rjaa_40b6100

CSE524 RJAA-ZSPD B-6100 A330-343

20191123_rjaa_41hl8001

KAL002 PHNL-RJAA HL8001 A330-323

20191123_rjaa_42n16065

DAL69 KPDX-RJAA N16065 B767-332ER

20191123_rjaa_43b1979

CSN8384 RJAA-ZHCC B-1979 B737-86N

20191123_rjaa_44n401dz

DAL167 KSEA-RJAA N401DZ A330-941

20191123_rjaa_45b17882

EVA197 RJAA-RCTP B-17882 B787-9

RJAA 230600Z 05009KT 020V080 3000 -SHRA BR FEW003 BKN004 BKN006 16/16 Q1025 NOSIG

20191123_rjaa_46n24974

UAL32 KLAX-RJAA N24974 B787-9

20191123_rjaa_47hsxth

TAX603 RJAA-VTBD HS-XTH A330-343

20191123_rjaa_48ja382a

20191123_rjaa_49ja382a

ANA183 PHNL-RJAA JA382A A380-841

20191123_rjaa_50n2136u

UAL837 KSFO-RJAA N2136U B777-322ER

20191123_rjaa_51n196dn

DAL181 PHNL-RJAA N196DN B767-332ER

20191123_rjaa_52b1783

CHH7928 RJAA-ZLXY B-1783 B737-84P

20191123_rjaa_53ja736a

ANA175 KLAX-RJAA JA736A B777-381ER

20191123_rjaa_54n501dn

DAL275 KDTW-RJAA N501DN A350-941

20191123_rjaa_55ja781a

ANA7 KSFO-RJAA JA781A B777-381ER

半年ぶりの成田。横殴りの雨の中、だれもいない丘の上で、ただひたすらスポッティング。総じて見慣れないレジが増えて、新しい機体が随分入っているのですね。この後、テスラのトラックのようにエマーになった JAL723/JA870J が帰ってきたのでしたが、エマーを認識しておらず、車の中から見送って、離脱となりました。

|

« 岐阜基地航空祭2019【展示編】 岐阜飛行場 2019/11/10 sun | トップページ | ### RJNT log 201911 ### »

成田国際空港」カテゴリの記事

コメント

コメントを書く



(ウェブ上には掲載しません)


コメントは記事投稿者が公開するまで表示されません。



« 岐阜基地航空祭2019【展示編】 岐阜飛行場 2019/11/10 sun | トップページ | ### RJNT log 201911 ### »